Relevés horaires Leibstadt (Suisse)


Relevés horaires à Leibstadt - Mercredi 20 Juin 2018
Heure UTC1 Température [°C] Vent [km/h] Hum. [%] Pres.4 [hPa] Visi. [Km] Nébu. [octa] Préc.5 [mm] Cond.
2m. Res. Ros. Dir.2 Vit. Moy. Raf.3
23:00 18.7 18.7 17.8 SSO 1.9 -- -- 95 1017.9 -- -- -- --
22:00 20.7 20.7 18.5 OSO 1.9 -- -- 87 1017.9 -- -- -- --
21:00 21.7 21.7 18.5 NNO 0.0 -- 9.3 82 1017.7 -- -- -- --
20:00 22.2 22.2 18.7 SE 0.0 -- -- 81 1017.4 -- -- -- --
19:00 25.4 25.4 18.0 SSO 5.6 -- -- 64 1016.4 -- -- -- --
18:00 28.5 28.5 16.9 S 3.7 -- 20.4 49 1015.9 -- -- 0/12h
--
17:00 29.9 29.9 13.3 S 5.6 -- -- 36 1015.8 -- -- -- --
16:00 30.4 30.4 13.4 ESE 7.4 -- -- 35 1015.9 -- -- -- --
15:00 30.4 30.4 13.6 ESE 5.6 -- 20.4 36 1016.4 -- -- -- --
14:00 30.1 30.1 13.6 SE 9.3 -- -- 37 1017 -- -- -- --
13:00 29.5 29.5 14.1 SSE 11.1 -- -- 39 1017.6 -- -- -- --
12:00 29.3 29.3 13.1 N 7.4 -- 22.2 37 1018.2 -- -- 0/6h
--
11:00 27.7 27.7 13.8 NE 5.6 -- -- 42 1019 -- -- -- --
10:00 26.6 26.6 15.1 ESE 7.4 -- -- 49 1019.6 -- -- -- --
09:00 24.5 24.5 16.2 ONO 3.7 -- 9.3 60 1020.1 -- -- -- --
08:00 22.5 22.5 15.5 SE 5.6 -- -- 65 1020.8 -- -- -- --
07:00 20.1 20.1 15.9 O 3.7 -- -- 77 981.9 -- -- -- --
06:00 17.5 17.5 15.6 O 5.6 -- -- 89 1022.1 -- -- -- --
05:00 15.2 15.2 15.1 E 1.9 -- -- 99 1022.4 -- -- -- --
04:00 13.3 13.3 13.3 E 0.0 -- -- 100 1022.6 -- -- -- --
03:00 13.6 13.6 13.6 SE 0.0 -- 5.6 100 1022.6 -- -- -- --
02:00 13.9 13.9 13.8 OSO 3.7 -- -- 99 1022.6 -- -- -- --
01:00 14.6 14.6 14.1 S 0.0 -- -- 97 1022.5 -- -- -- --
00:00 15.1 15.1 14.1 SSO 1.9 -- 5.6 94 1022.9 -- -- 0/6h
--

1 Coordinated Universal Time. Actuellement il est 23:00 locale et 21:00 UTC.

2 Le vent souffle depuis la direction indiquée vers la direction oposée.

3 Les rafales max. sont disponible 40 min après l'heure du relevé.

4 Pour les stations d'altitude (plus de 600m) le géopotentiel du niveau le plus proche de la pression obligatoire est indiqué.

5 Les stations disposant d'un diffuseur peuvent indiquer "trace". Cela signifie que des précipitations ont touchés le sol mais que la quantité est inférieure à 0.1 mm.

Copyright

Les données affichées sur cette page sont la propriété exclusive de Météo Suisse.

Récapitulatif de la journée
Température [°C] Vent [km/h] Ensoleillement4 [h] Precipitations totale5 [mm] Pression [Hpa]
Min1 Max.2 Moy.3 Max. Min Max.
13.1 30.5 0 22.2 14 h 36 min 0 981.9 1022.9

1 Température minimale relevée entre 18:00 UTC la veille et 18:00 UTC le jour donné.

2 Température maximale relevée entre 06:00 UTC le jour donné et 06:00 UTC le lendemain.

3 Vent moyen de la journée basé sur les relevés horaires.

4 Ensoleillement en heures relevé entre 06:00 UTC la veille et 06:00 UTC le jour donné.

5 Précipitations totales tombées entre 06:00 UTC la jour donné et 06:00 UTC le lendemain.

Graphiques horaires